sensor_id;sensor_type;location;lat;lon;timestamp;P1;durP1;ratioP1;P2;durP2;ratioP2
72493;SDS011;60520;49.182;-0.348;2022-08-11T00:01:04;1.63;;;1.50;;
72493;SDS011;60520;49.182;-0.348;2022-08-11T00:03:32;2.13;;;1.42;;
72493;SDS011;60520;49.182;-0.348;2022-08-11T00:06:00;2.05;;;1.73;;
72493;SDS011;60520;49.182;-0.348;2022-08-11T00:08:28;2.08;;;1.52;;
72493;SDS011;60520;49.182;-0.348;2022-08-11T00:10:56;2.47;;;1.55;;
72493;SDS011;60520;49.182;-0.348;2022-08-11T00:13:30;2.55;;;1.58;;
72493;SDS011;60520;49.182;-0.348;2022-08-11T00:15:57;2.33;;;1.80;;
72493;SDS011;60520;49.182;-0.348;2022-08-11T00:18:26;2.65;;;1.60;;
72493;SDS011;60520;49.182;-0.348;2022-08-11T00:20:56;1.83;;;1.60;;
72493;SDS011;60520;49.182;-0.348;2022-08-11T00:23:24;2.35;;;1.70;;
72493;SDS011;60520;49.182;-0.348;2022-08-11T00:25:52;2.05;;;1.55;;
72493;SDS011;60520;49.182;-0.348;2022-08-11T00:28:22;2.17;;;1.70;;
72493;SDS011;60520;49.182;-0.348;2022-08-11T00:30:50;3.83;;;1.60;;
72493;SDS011;60520;49.182;-0.348;2022-08-11T00:33:17;1.70;;;1.58;;
72493;SDS011;60520;49.182;-0.348;2022-08-11T00:35:49;2.30;;;1.67;;
72493;SDS011;60520;49.182;-0.348;2022-08-11T00:38:17;2.22;;;1.70;;
72493;SDS011;60520;49.182;-0.348;2022-08-11T00:40:50;2.95;;;1.80;;
72493;SDS011;60520;49.182;-0.348;2022-08-11T00:43:20;2.45;;;1.60;;
72493;SDS011;60520;49.182;-0.348;2022-08-11T00:48:35;1.92;;;1.40;;
72493;SDS011;60520;49.182;-0.348;2022-08-11T00:51:09;1.92;;;1.40;;
72493;SDS011;60520;49.182;-0.348;2022-08-11T00:53:43;2.58;;;1.65;;
72493;SDS011;60520;49.182;-0.348;2022-08-11T00:59:15;1.70;;;1.38;;
72493;SDS011;60520;49.182;-0.348;2022-08-11T01:01:54;2.83;;;1.70;;
72493;SDS011;60520;49.182;-0.348;2022-08-11T01:09:57;2.60;;;1.58;;
72493;SDS011;60520;49.182;-0.348;2022-08-11T01:15:34;2.42;;;1.50;;
72493;SDS011;60520;49.182;-0.348;2022-08-11T01:18:24;2.50;;;1.80;;
72493;SDS011;60520;49.182;-0.348;2022-08-11T01:23:54;2.63;;;1.65;;
72493;SDS011;60520;49.182;-0.348;2022-08-11T01:26:45;2.10;;;1.58;;
72493;SDS011;60520;49.182;-0.348;2022-08-11T01:32:40;2.97;;;1.70;;
72493;SDS011;60520;49.182;-0.348;2022-08-11T01:38:00;2.30;;;1.70;;
72493;SDS011;60520;49.182;-0.348;2022-08-11T01:43:28;2.45;;;1.67;;
72493;SDS011;60520;49.182;-0.348;2022-08-11T01:46:21;2.83;;;1.60;;
72493;SDS011;60520;49.182;-0.348;2022-08-11T01:48:54;3.47;;;1.70;;
72493;SDS011;60520;49.182;-0.348;2022-08-11T01:51:24;1.98;;;1.58;;
72493;SDS011;60520;49.182;-0.348;2022-08-11T01:53:58;2.65;;;1.58;;
72493;SDS011;60520;49.182;-0.348;2022-08-11T01:56:30;2.63;;;1.55;;
72493;SDS011;60520;49.182;-0.348;2022-08-11T01:59:00;2.08;;;1.50;;
72493;SDS011;60520;49.182;-0.348;2022-08-11T02:01:32;2.60;;;1.50;;
72493;SDS011;60520;49.182;-0.348;2022-08-11T02:04:06;2.30;;;1.80;;
72493;SDS011;60520;49.182;-0.348;2022-08-11T02:06:37;1.88;;;1.50;;
72493;SDS011;60520;49.182;-0.348;2022-08-11T02:09:23;2.42;;;1.60;;
72493;SDS011;60520;49.182;-0.348;2022-08-11T02:11:54;2.00;;;1.58;;
72493;SDS011;60520;49.182;-0.348;2022-08-11T02:14:23;2.50;;;1.70;;
72493;SDS011;60520;49.182;-0.348;2022-08-11T02:16:58;1.98;;;1.60;;
72493;SDS011;60520;49.182;-0.348;2022-08-11T02:19:32;2.30;;;1.63;;
72493;SDS011;60520;49.182;-0.348;2022-08-11T02:22:22;2.08;;;1.52;;
72493;SDS011;60520;49.182;-0.348;2022-08-11T02:25:11;3.15;;;1.83;;
72493;SDS011;60520;49.182;-0.348;2022-08-11T02:27:44;2.08;;;1.50;;
72493;SDS011;60520;49.182;-0.348;2022-08-11T02:30:14;2.20;;;1.60;;
72493;SDS011;60520;49.182;-0.348;2022-08-11T02:32:45;2.03;;;1.52;;
72493;SDS011;60520;49.182;-0.348;2022-08-11T02:35:34;1.83;;;1.48;;
72493;SDS011;60520;49.182;-0.348;2022-08-11T02:38:07;2.85;;;1.50;;
72493;SDS011;60520;49.182;-0.348;2022-08-11T02:40:43;1.73;;;1.42;;
72493;SDS011;60520;49.182;-0.348;2022-08-11T02:43:18;1.95;;;1.52;;
72493;SDS011;60520;49.182;-0.348;2022-08-11T02:45:54;2.42;;;1.70;;
72493;SDS011;60520;49.182;-0.348;2022-08-11T02:48:28;2.30;;;1.70;;
72493;SDS011;60520;49.182;-0.348;2022-08-11T02:51:17;2.95;;;1.63;;
72493;SDS011;60520;49.182;-0.348;2022-08-11T02:53:48;2.10;;;1.73;;
72493;SDS011;60520;49.182;-0.348;2022-08-11T02:56:20;2.13;;;1.50;;
72493;SDS011;60520;49.182;-0.348;2022-08-11T02:58:51;2.28;;;1.60;;
72493;SDS011;60520;49.182;-0.348;2022-08-11T03:01:38;2.08;;;1.50;;
72493;SDS011;60520;49.182;-0.348;2022-08-11T03:04:07;1.85;;;1.70;;
72493;SDS011;60520;49.182;-0.348;2022-08-11T03:06:38;1.75;;;1.40;;
72493;SDS011;60520;49.182;-0.348;2022-08-11T03:09:08;2.67;;;1.50;;
72493;SDS011;60520;49.182;-0.348;2022-08-11T03:11:48;2.13;;;1.40;;
72493;SDS011;60520;49.182;-0.348;2022-08-11T03:14:35;2.35;;;1.60;;
72493;SDS011;60520;49.182;-0.348;2022-08-11T03:17:24;2.47;;;1.58;;
72493;SDS011;60520;49.182;-0.348;2022-08-11T03:20:13;2.38;;;1.52;;
72493;SDS011;60520;49.182;-0.348;2022-08-11T03:22:48;2.78;;;1.70;;
72493;SDS011;60520;49.182;-0.348;2022-08-11T03:25:18;2.13;;;1.77;;
72493;SDS011;60520;49.182;-0.348;2022-08-11T03:27:59;2.67;;;1.60;;
72493;SDS011;60520;49.182;-0.348;2022-08-11T03:30:29;2.00;;;1.60;;
72493;SDS011;60520;49.182;-0.348;2022-08-11T03:33:04;1.85;;;1.45;;
72493;SDS011;60520;49.182;-0.348;2022-08-11T03:35:53;2.20;;;1.60;;
72493;SDS011;60520;49.182;-0.348;2022-08-11T03:38:24;2.53;;;1.70;;
72493;SDS011;60520;49.182;-0.348;2022-08-11T03:40:58;2.58;;;1.58;;
72493;SDS011;60520;49.182;-0.348;2022-08-11T03:43:53;2.63;;;1.70;;
72493;SDS011;60520;49.182;-0.348;2022-08-11T03:46:25;2.45;;;1.95;;
72493;SDS011;60520;49.182;-0.348;2022-08-11T03:48:53;1.98;;;1.48;;
72493;SDS011;60520;49.182;-0.348;2022-08-11T03:51:24;2.10;;;1.70;;
72493;SDS011;60520;49.182;-0.348;2022-08-11T03:59:30;1.98;;;1.70;;
72493;SDS011;60520;49.182;-0.348;2022-08-11T04:02:05;2.05;;;1.50;;
72493;SDS011;60520;49.182;-0.348;2022-08-11T04:04:51;2.08;;;1.38;;
72493;SDS011;60520;49.182;-0.348;2022-08-11T04:10:10;1.92;;;1.70;;
72493;SDS011;60520;49.182;-0.348;2022-08-11T04:12:46;1.88;;;1.52;;
72493;SDS011;60520;49.182;-0.348;2022-08-11T04:15:33;2.17;;;1.77;;
72493;SDS011;60520;49.182;-0.348;2022-08-11T04:18:26;3.03;;;1.85;;
72493;SDS011;60520;49.182;-0.348;2022-08-11T04:21:05;2.78;;;1.90;;
72493;SDS011;60520;49.182;-0.348;2022-08-11T04:26:53;2.63;;;1.50;;
72493;SDS011;60520;49.182;-0.348;2022-08-11T04:29:28;2.33;;;1.77;;
72493;SDS011;60520;49.182;-0.348;2022-08-11T04:32:08;2.47;;;1.58;;
72493;SDS011;60520;49.182;-0.348;2022-08-11T04:34:53;2.63;;;1.77;;
72493;SDS011;60520;49.182;-0.348;2022-08-11T04:37:35;1.98;;;1.60;;
72493;SDS011;60520;49.182;-0.348;2022-08-11T04:40:17;2.53;;;1.67;;
72493;SDS011;60520;49.182;-0.348;2022-08-11T04:43:04;2.45;;;1.80;;
72493;SDS011;60520;49.182;-0.348;2022-08-11T04:48:51;2.08;;;1.77;;
72493;SDS011;60520;49.182;-0.348;2022-08-11T04:54:55;3.00;;;2.00;;
72493;SDS011;60520;49.182;-0.348;2022-08-11T04:57:46;3.15;;;1.80;;
72493;SDS011;60520;49.182;-0.348;2022-08-11T05:00:37;1.83;;;1.50;;
72493;SDS011;60520;49.182;-0.348;2022-08-11T05:06:46;3.15;;;2.08;;
72493;SDS011;60520;49.182;-0.348;2022-08-11T05:09:20;2.85;;;1.70;;
72493;SDS011;60520;49.182;-0.348;2022-08-11T05:12:01;3.00;;;1.77;;
72493;SDS011;60520;49.182;-0.348;2022-08-11T05:14:33;2.92;;;1.80;;
72493;SDS011;60520;49.182;-0.348;2022-08-11T05:17:36;2.83;;;1.73;;
72493;SDS011;60520;49.182;-0.348;2022-08-11T05:20:22;2.05;;;1.50;;
72493;SDS011;60520;49.182;-0.348;2022-08-11T05:23:10;2.67;;;1.75;;
72493;SDS011;60520;49.182;-0.348;2022-08-11T05:25:56;2.55;;;1.52;;
72493;SDS011;60520;49.182;-0.348;2022-08-11T05:28:42;2.15;;;1.80;;
72493;SDS011;60520;49.182;-0.348;2022-08-11T05:31:31;2.22;;;1.70;;
72493;SDS011;60520;49.182;-0.348;2022-08-11T05:34:18;2.17;;;1.40;;
72493;SDS011;60520;49.182;-0.348;2022-08-11T05:37:04;1.90;;;1.50;;
72493;SDS011;60520;49.182;-0.348;2022-08-11T05:39:37;2.55;;;1.48;;
72493;SDS011;60520;49.182;-0.348;2022-08-11T05:42:23;3.40;;;1.80;;
72493;SDS011;60520;49.182;-0.348;2022-08-11T05:45:10;1.88;;;1.42;;
72493;SDS011;60520;49.182;-0.348;2022-08-11T05:47:55;2.63;;;1.55;;
72493;SDS011;60520;49.182;-0.348;2022-08-11T05:50:40;2.33;;;1.60;;
72493;SDS011;60520;49.182;-0.348;2022-08-11T05:53:25;1.60;;;1.40;;
72493;SDS011;60520;49.182;-0.348;2022-08-11T05:56:11;2.00;;;1.48;;
72493;SDS011;60520;49.182;-0.348;2022-08-11T05:58:44;3.53;;;1.48;;
72493;SDS011;60520;49.182;-0.348;2022-08-11T06:01:12;3.30;;;1.67;;
72493;SDS011;60520;49.182;-0.348;2022-08-11T06:03:42;2.20;;;1.50;;
72493;SDS011;60520;49.182;-0.348;2022-08-11T06:06:23;1.75;;;1.42;;
72493;SDS011;60520;49.182;-0.348;2022-08-11T06:08:52;2.05;;;1.50;;
72493;SDS011;60520;49.182;-0.348;2022-08-11T06:11:22;2.45;;;1.85;;
72493;SDS011;60520;49.182;-0.348;2022-08-11T06:13:50;2.10;;;1.50;;
72493;SDS011;60520;49.182;-0.348;2022-08-11T06:16:20;2.47;;;1.58;;
72493;SDS011;60520;49.182;-0.348;2022-08-11T06:18:48;2.58;;;1.50;;
72493;SDS011;60520;49.182;-0.348;2022-08-11T06:21:15;1.70;;;1.60;;
72493;SDS011;60520;49.182;-0.348;2022-08-11T06:23:43;1.95;;;1.48;;
72493;SDS011;60520;49.182;-0.348;2022-08-11T06:26:12;3.33;;;1.85;;
72493;SDS011;60520;49.182;-0.348;2022-08-11T06:28:43;3.10;;;1.60;;
72493;SDS011;60520;49.182;-0.348;2022-08-11T06:31:11;2.35;;;1.73;;
72493;SDS011;60520;49.182;-0.348;2022-08-11T06:33:44;3.25;;;1.73;;
72493;SDS011;60520;49.182;-0.348;2022-08-11T06:36:15;1.60;;;1.50;;
72493;SDS011;60520;49.182;-0.348;2022-08-11T06:38:48;3.55;;;1.67;;
72493;SDS011;60520;49.182;-0.348;2022-08-11T06:41:20;2.22;;;1.40;;
72493;SDS011;60520;49.182;-0.348;2022-08-11T06:44:06;1.90;;;1.50;;
72493;SDS011;60520;49.182;-0.348;2022-08-11T06:46:35;2.22;;;1.80;;
72493;SDS011;60520;49.182;-0.348;2022-08-11T06:49:03;2.17;;;1.63;;
72493;SDS011;60520;49.182;-0.348;2022-08-11T06:51:51;2.47;;;1.65;;
72493;SDS011;60520;49.182;-0.348;2022-08-11T06:54:19;4.15;;;1.67;;
72493;SDS011;60520;49.182;-0.348;2022-08-11T06:56:46;2.08;;;1.52;;
72493;SDS011;60520;49.182;-0.348;2022-08-11T06:59:33;2.78;;;1.73;;
72493;SDS011;60520;49.182;-0.348;2022-08-11T07:02:21;2.58;;;1.70;;
72493;SDS011;60520;49.182;-0.348;2022-08-11T07:04:50;2.47;;;1.55;;
72493;SDS011;60520;49.182;-0.348;2022-08-11T07:10:25;1.95;;;1.60;;
72493;SDS011;60520;49.182;-0.348;2022-08-11T07:13:13;1.88;;;1.48;;
72493;SDS011;60520;49.182;-0.348;2022-08-11T07:16:00;2.22;;;1.75;;
72493;SDS011;60520;49.182;-0.348;2022-08-11T07:18:30;2.28;;;1.40;;
72493;SDS011;60520;49.182;-0.348;2022-08-11T07:21:19;2.30;;;1.52;;
72493;SDS011;60520;49.182;-0.348;2022-08-11T07:24:07;1.77;;;1.48;;
72493;SDS011;60520;49.182;-0.348;2022-08-11T07:26:52;1.98;;;1.50;;
72493;SDS011;60520;49.182;-0.348;2022-08-11T07:29:38;1.80;;;1.55;;
72493;SDS011;60520;49.182;-0.348;2022-08-11T07:32:12;1.88;;;1.50;;
72493;SDS011;60520;49.182;-0.348;2022-08-11T07:34:42;1.58;;;1.38;;
72493;SDS011;60520;49.182;-0.348;2022-08-11T07:37:12;1.88;;;1.55;;
72493;SDS011;60520;49.182;-0.348;2022-08-11T07:39:42;1.88;;;1.40;;
72493;SDS011;60520;49.182;-0.348;2022-08-11T07:42:10;2.33;;;1.60;;
72493;SDS011;60520;49.182;-0.348;2022-08-11T07:44:38;1.65;;;1.42;;
72493;SDS011;60520;49.182;-0.348;2022-08-11T07:47:21;2.50;;;1.73;;
72493;SDS011;60520;49.182;-0.348;2022-08-11T07:50:07;2.03;;;1.40;;
72493;SDS011;60520;49.182;-0.348;2022-08-11T07:52:52;2.13;;;1.30;;
72493;SDS011;60520;49.182;-0.348;2022-08-11T07:55:20;1.98;;;1.30;;
72493;SDS011;60520;49.182;-0.348;2022-08-11T07:57:49;1.95;;;1.50;;
72493;SDS011;60520;49.182;-0.348;2022-08-11T08:00:34;1.95;;;1.30;;
72493;SDS011;60520;49.182;-0.348;2022-08-11T08:03:21;1.77;;;1.40;;
72493;SDS011;60520;49.182;-0.348;2022-08-11T08:06:06;1.75;;;1.30;;
72493;SDS011;60520;49.182;-0.348;2022-08-11T08:08:51;1.90;;;1.58;;
72493;SDS011;60520;49.182;-0.348;2022-08-11T08:11:37;1.58;;;1.30;;
72493;SDS011;60520;49.182;-0.348;2022-08-11T08:14:22;2.58;;;1.60;;
72493;SDS011;60520;49.182;-0.348;2022-08-11T08:17:07;1.58;;;1.20;;
72493;SDS011;60520;49.182;-0.348;2022-08-11T08:19:54;1.95;;;1.48;;
72493;SDS011;60520;49.182;-0.348;2022-08-11T08:22:21;2.38;;;1.50;;
72493;SDS011;60520;49.182;-0.348;2022-08-11T08:24:48;1.83;;;1.33;;
72493;SDS011;60520;49.182;-0.348;2022-08-11T08:27:16;1.45;;;1.17;;
72493;SDS011;60520;49.182;-0.348;2022-08-11T08:29:44;2.20;;;1.50;;
72493;SDS011;60520;49.182;-0.348;2022-08-11T08:32:29;1.33;;;1.17;;
72493;SDS011;60520;49.182;-0.348;2022-08-11T08:34:57;1.90;;;1.30;;
72493;SDS011;60520;49.182;-0.348;2022-08-11T08:37:26;1.30;;;1.10;;
72493;SDS011;60520;49.182;-0.348;2022-08-11T08:39:53;2.03;;;1.50;;
72493;SDS011;60520;49.182;-0.348;2022-08-11T08:42:23;1.83;;;1.23;;
72493;SDS011;60520;49.182;-0.348;2022-08-11T08:44:51;1.55;;;1.38;;
72493;SDS011;60520;49.182;-0.348;2022-08-11T08:47:22;2.15;;;1.40;;
72493;SDS011;60520;49.182;-0.348;2022-08-11T08:49:59;2.03;;;1.30;;
72493;SDS011;60520;49.182;-0.348;2022-08-11T08:52:28;1.40;;;1.20;;
72493;SDS011;60520;49.182;-0.348;2022-08-11T08:54:57;1.85;;;1.30;;
72493;SDS011;60520;49.182;-0.348;2022-08-11T08:57:27;1.83;;;1.25;;
72493;SDS011;60520;49.182;-0.348;2022-08-11T08:59:55;1.60;;;1.30;;
72493;SDS011;60520;49.182;-0.348;2022-08-11T09:02:23;1.98;;;1.25;;
72493;SDS011;60520;49.182;-0.348;2022-08-11T09:04:50;1.88;;;1.50;;
72493;SDS011;60520;49.182;-0.348;2022-08-11T09:07:19;2.28;;;1.35;;
72493;SDS011;60520;49.182;-0.348;2022-08-11T09:09:50;1.30;;;1.20;;
72493;SDS011;60520;49.182;-0.348;2022-08-11T09:12:18;1.70;;;1.40;;
72493;SDS011;60520;49.182;-0.348;2022-08-11T09:14:46;1.88;;;1.23;;
72493;SDS011;60520;49.182;-0.348;2022-08-11T09:17:28;1.73;;;1.40;;
72493;SDS011;60520;49.182;-0.348;2022-08-11T09:19:57;1.75;;;1.27;;
72493;SDS011;60520;49.182;-0.348;2022-08-11T09:22:25;1.30;;;1.20;;
72493;SDS011;60520;49.182;-0.348;2022-08-11T09:25:12;2.03;;;1.30;;
72493;SDS011;60520;49.182;-0.348;2022-08-11T09:27:56;1.10;;;1.00;;
72493;SDS011;60520;49.182;-0.348;2022-08-11T09:30:25;2.28;;;1.30;;
72493;SDS011;60520;49.182;-0.348;2022-08-11T09:32:52;1.50;;;1.10;;
72493;SDS011;60520;49.182;-0.348;2022-08-11T09:35:22;1.40;;;1.15;;
72493;SDS011;60520;49.182;-0.348;2022-08-11T09:37:49;1.20;;;1.10;;
72493;SDS011;60520;49.182;-0.348;2022-08-11T09:40:36;1.02;;;0.93;;
72493;SDS011;60520;49.182;-0.348;2022-08-11T09:43:04;1.30;;;1.20;;
72493;SDS011;60520;49.182;-0.348;2022-08-11T09:45:50;2.03;;;1.20;;
72493;SDS011;60520;49.182;-0.348;2022-08-11T09:48:17;1.67;;;1.17;;
72493;SDS011;60520;49.182;-0.348;2022-08-11T09:50:45;1.58;;;1.35;;
72493;SDS011;60520;49.182;-0.348;2022-08-11T09:53:14;1.38;;;1.17;;
72493;SDS011;60520;49.182;-0.348;2022-08-11T09:55:43;1.10;;;1.00;;
72493;SDS011;60520;49.182;-0.348;2022-08-11T09:58:11;1.33;;;1.10;;
72493;SDS011;60520;49.182;-0.348;2022-08-11T10:00:37;1.20;;;1.10;;
72493;SDS011;60520;49.182;-0.348;2022-08-11T10:03:05;1.30;;;1.20;;
72493;SDS011;60520;49.182;-0.348;2022-08-11T10:05:33;1.58;;;1.17;;
72493;SDS011;60520;49.182;-0.348;2022-08-11T10:08:19;1.73;;;1.13;;
72493;SDS011;60520;49.182;-0.348;2022-08-11T10:10:47;1.30;;;1.10;;
72493;SDS011;60520;49.182;-0.348;2022-08-11T10:13:15;1.23;;;1.13;;
72493;SDS011;60520;49.182;-0.348;2022-08-11T10:15:43;1.20;;;1.10;;
72493;SDS011;60520;49.182;-0.348;2022-08-11T10:18:12;1.45;;;1.17;;
72493;SDS011;60520;49.182;-0.348;2022-08-11T10:20:58;1.38;;;1.10;;
72493;SDS011;60520;49.182;-0.348;2022-08-11T10:23:26;1.00;;;1.00;;
72493;SDS011;60520;49.182;-0.348;2022-08-11T10:26:13;1.52;;;1.23;;
72493;SDS011;60520;49.182;-0.348;2022-08-11T10:28:58;1.10;;;0.93;;
72493;SDS011;60520;49.182;-0.348;2022-08-11T10:31:26;1.20;;;1.10;;
72493;SDS011;60520;49.182;-0.348;2022-08-11T10:34:11;1.35;;;1.10;;
72493;SDS011;60520;49.182;-0.348;2022-08-11T10:36:40;1.20;;;1.10;;
72493;SDS011;60520;49.182;-0.348;2022-08-11T10:39:09;1.10;;;1.00;;
72493;SDS011;60520;49.182;-0.348;2022-08-11T10:41:42;1.20;;;1.10;;
72493;SDS011;60520;49.182;-0.348;2022-08-11T10:44:27;1.13;;;1.00;;
72493;SDS011;60520;49.182;-0.348;2022-08-11T10:46:55;1.17;;;1.08;;
72493;SDS011;60520;49.182;-0.348;2022-08-11T10:49:40;1.20;;;1.10;;
72493;SDS011;60520;49.182;-0.348;2022-08-11T10:52:07;1.27;;;1.05;;
72493;SDS011;60520;49.182;-0.348;2022-08-11T10:54:52;2.08;;;1.15;;
72493;SDS011;60520;49.182;-0.348;2022-08-11T10:57:38;1.10;;;1.00;;
72493;SDS011;60520;49.182;-0.348;2022-08-11T11:00:23;1.70;;;1.08;;
72493;SDS011;60520;49.182;-0.348;2022-08-11T11:02:50;1.40;;;1.30;;
72493;SDS011;60520;49.182;-0.348;2022-08-11T11:05:20;1.52;;;1.17;;
72493;SDS011;60520;49.182;-0.348;2022-08-11T11:07:49;1.00;;;0.80;;
72493;SDS011;60520;49.182;-0.348;2022-08-11T11:10:18;1.30;;;1.00;;
72493;SDS011;60520;49.182;-0.348;2022-08-11T11:12:49;1.20;;;1.02;;
72493;SDS011;60520;49.182;-0.348;2022-08-11T11:15:34;1.27;;;1.00;;
72493;SDS011;60520;49.182;-0.348;2022-08-11T11:18:35;1.02;;;0.93;;
72493;SDS011;60520;49.182;-0.348;2022-08-11T11:21:04;1.13;;;1.00;;
72493;SDS011;60520;49.182;-0.348;2022-08-11T11:23:33;1.55;;;1.10;;
72493;SDS011;60520;49.182;-0.348;2022-08-11T11:31:35;0.80;;;0.80;;
72493;SDS011;60520;49.182;-0.348;2022-08-11T11:34:10;1.17;;;1.08;;
72493;SDS011;60520;49.182;-0.348;2022-08-11T11:36:40;1.20;;;1.10;;
72493;SDS011;60520;49.182;-0.348;2022-08-11T11:39:11;0.98;;;0.85;;
72493;SDS011;60520;49.182;-0.348;2022-08-11T11:41:38;1.30;;;1.10;;
72493;SDS011;60520;49.182;-0.348;2022-08-11T11:44:07;1.30;;;1.02;;
72493;SDS011;60520;49.182;-0.348;2022-08-11T11:46:38;1.15;;;1.05;;
72493;SDS011;60520;49.182;-0.348;2022-08-11T11:49:09;1.25;;;1.00;;
72493;SDS011;60520;49.182;-0.348;2022-08-11T11:51:36;1.58;;;0.85;;
72493;SDS011;60520;49.182;-0.348;2022-08-11T11:54:04;1.40;;;1.20;;
72493;SDS011;60520;49.182;-0.348;2022-08-11T11:56:31;0.95;;;0.82;;
72493;SDS011;60520;49.182;-0.348;2022-08-11T11:58:58;1.20;;;0.80;;
72493;SDS011;60520;49.182;-0.348;2022-08-11T12:01:45;1.00;;;0.90;;
72493;SDS011;60520;49.182;-0.348;2022-08-11T12:04:12;0.93;;;0.82;;
72493;SDS011;60520;49.182;-0.348;2022-08-11T12:06:42;1.17;;;1.08;;
72493;SDS011;60520;49.182;-0.348;2022-08-11T12:09:09;1.90;;;1.08;;
72493;SDS011;60520;49.182;-0.348;2022-08-11T12:11:38;2.33;;;0.90;;
72493;SDS011;60520;49.182;-0.348;2022-08-11T12:14:23;1.17;;;1.00;;
72493;SDS011;60520;49.182;-0.348;2022-08-11T12:16:54;1.00;;;0.80;;
72493;SDS011;60520;49.182;-0.348;2022-08-11T12:19:22;1.00;;;0.88;;
72493;SDS011;60520;49.182;-0.348;2022-08-11T12:21:50;1.00;;;0.88;;
72493;SDS011;60520;49.182;-0.348;2022-08-11T12:24:36;1.00;;;0.90;;
72493;SDS011;60520;49.182;-0.348;2022-08-11T12:27:21;1.20;;;0.98;;
72493;SDS011;60520;49.182;-0.348;2022-08-11T12:29:50;1.10;;;1.00;;
72493;SDS011;60520;49.182;-0.348;2022-08-11T12:32:20;1.10;;;1.00;;
72493;SDS011;60520;49.182;-0.348;2022-08-11T12:34:48;1.60;;;1.13;;
72493;SDS011;60520;49.182;-0.348;2022-08-11T12:37:19;1.63;;;1.00;;
72493;SDS011;60520;49.182;-0.348;2022-08-11T12:39:47;1.00;;;0.90;;
72493;SDS011;60520;49.182;-0.348;2022-08-11T12:42:33;0.80;;;0.80;;
72493;SDS011;60520;49.182;-0.348;2022-08-11T12:45:21;1.20;;;1.10;;
72493;SDS011;60520;49.182;-0.348;2022-08-11T12:47:56;1.35;;;0.90;;
72493;SDS011;60520;49.182;-0.348;2022-08-11T12:50:42;1.02;;;0.93;;
72493;SDS011;60520;49.182;-0.348;2022-08-11T12:53:29;1.08;;;0.98;;
72493;SDS011;60520;49.182;-0.348;2022-08-11T12:55:59;1.00;;;0.90;;
72493;SDS011;60520;49.182;-0.348;2022-08-11T12:58:47;1.15;;;0.90;;
72493;SDS011;60520;49.182;-0.348;2022-08-11T13:01:15;1.45;;;1.17;;
72493;SDS011;60520;49.182;-0.348;2022-08-11T13:04:01;0.80;;;0.80;;
72493;SDS011;60520;49.182;-0.348;2022-08-11T13:06:46;1.02;;;0.93;;
72493;SDS011;60520;49.182;-0.348;2022-08-11T13:09:15;1.20;;;1.00;;
72493;SDS011;60520;49.182;-0.348;2022-08-11T13:11:43;1.08;;;0.93;;
72493;SDS011;60520;49.182;-0.348;2022-08-11T13:14:29;1.20;;;0.98;;
72493;SDS011;60520;49.182;-0.348;2022-08-11T13:16:57;1.20;;;1.10;;
72493;SDS011;60520;49.182;-0.348;2022-08-11T13:19:43;1.58;;;1.08;;
72493;SDS011;60520;49.182;-0.348;2022-08-11T13:22:11;0.80;;;0.80;;
72493;SDS011;60520;49.182;-0.348;2022-08-11T13:24:38;0.85;;;0.75;;
72493;SDS011;60520;49.182;-0.348;2022-08-11T13:27:06;1.45;;;1.00;;
72493;SDS011;60520;49.182;-0.348;2022-08-11T13:29:36;1.50;;;1.00;;
72493;SDS011;60520;49.182;-0.348;2022-08-11T13:32:04;1.48;;;1.00;;
72493;SDS011;60520;49.182;-0.348;2022-08-11T13:34:32;2.40;;;1.00;;
72493;SDS011;60520;49.182;-0.348;2022-08-11T13:37:01;1.15;;;0.98;;
72493;SDS011;60520;49.182;-0.348;2022-08-11T13:39:29;1.25;;;1.02;;
72493;SDS011;60520;49.182;-0.348;2022-08-11T13:41:58;1.35;;;1.00;;
72493;SDS011;60520;49.182;-0.348;2022-08-11T13:44:27;0.82;;;0.82;;
72493;SDS011;60520;49.182;-0.348;2022-08-11T13:46:55;1.00;;;0.90;;
72493;SDS011;60520;49.182;-0.348;2022-08-11T13:49:23;1.00;;;0.90;;
72493;SDS011;60520;49.182;-0.348;2022-08-11T13:51:51;1.13;;;1.02;;
72493;SDS011;60520;49.182;-0.348;2022-08-11T13:54:20;1.65;;;0.80;;
72493;SDS011;60520;49.182;-0.348;2022-08-11T13:56:49;1.02;;;0.90;;
72493;SDS011;60520;49.182;-0.348;2022-08-11T13:59:18;1.30;;;1.02;;
72493;SDS011;60520;49.182;-0.348;2022-08-11T14:01:47;1.30;;;1.00;;
72493;SDS011;60520;49.182;-0.348;2022-08-11T14:04:16;1.45;;;0.98;;
72493;SDS011;60520;49.182;-0.348;2022-08-11T14:06:48;1.48;;;0.85;;
72493;SDS011;60520;49.182;-0.348;2022-08-11T14:09:17;1.10;;;1.00;;
72493;SDS011;60520;49.182;-0.348;2022-08-11T14:11:48;1.00;;;0.90;;
72493;SDS011;60520;49.182;-0.348;2022-08-11T14:14:33;1.10;;;1.00;;
72493;SDS011;60520;49.182;-0.348;2022-08-11T14:17:03;3.78;;;1.00;;
72493;SDS011;60520;49.182;-0.348;2022-08-11T14:19:33;2.17;;;1.00;;
72493;SDS011;60520;49.182;-0.348;2022-08-11T14:22:01;0.88;;;0.88;;
72493;SDS011;60520;49.182;-0.348;2022-08-11T14:24:33;1.10;;;1.00;;
72493;SDS011;60520;49.182;-0.348;2022-08-11T14:27:01;1.52;;;0.93;;
72493;SDS011;60520;49.182;-0.348;2022-08-11T14:29:29;1.45;;;1.10;;
72493;SDS011;60520;49.182;-0.348;2022-08-11T14:31:59;1.10;;;1.00;;
72493;SDS011;60520;49.182;-0.348;2022-08-11T14:34:27;1.20;;;1.00;;
72493;SDS011;60520;49.182;-0.348;2022-08-11T14:36:57;1.58;;;1.05;;
72493;SDS011;60520;49.182;-0.348;2022-08-11T14:39:26;1.23;;;1.00;;
72493;SDS011;60520;49.182;-0.348;2022-08-11T14:41:54;0.80;;;0.80;;
72493;SDS011;60520;49.182;-0.348;2022-08-11T14:44:41;1.70;;;1.08;;
72493;SDS011;60520;49.182;-0.348;2022-08-11T14:47:26;1.20;;;1.10;;
72493;SDS011;60520;49.182;-0.348;2022-08-11T14:49:55;1.10;;;1.00;;
72493;SDS011;60520;49.182;-0.348;2022-08-11T14:52:23;0.90;;;0.85;;
72493;SDS011;60520;49.182;-0.348;2022-08-11T14:54:51;1.73;;;0.93;;
72493;SDS011;60520;49.182;-0.348;2022-08-11T14:57:37;1.80;;;0.90;;
72493;SDS011;60520;49.182;-0.348;2022-08-11T15:00:06;1.08;;;0.90;;
72493;SDS011;60520;49.182;-0.348;2022-08-11T15:02:35;1.10;;;1.00;;
72493;SDS011;60520;49.182;-0.348;2022-08-11T15:05:20;1.15;;;0.80;;
72493;SDS011;60520;49.182;-0.348;2022-08-11T15:07:48;1.02;;;0.90;;
72493;SDS011;60520;49.182;-0.348;2022-08-11T15:10:15;1.10;;;0.90;;
72493;SDS011;60520;49.182;-0.348;2022-08-11T15:12:43;1.23;;;1.00;;
72493;SDS011;60520;49.182;-0.348;2022-08-11T15:15:12;1.15;;;1.00;;
72493;SDS011;60520;49.182;-0.348;2022-08-11T15:17:57;1.50;;;1.00;;
72493;SDS011;60520;49.182;-0.348;2022-08-11T15:20:26;0.90;;;0.90;;
72493;SDS011;60520;49.182;-0.348;2022-08-11T15:23:11;1.25;;;1.00;;
72493;SDS011;60520;49.182;-0.348;2022-08-11T15:25:57;1.27;;;1.05;;
72493;SDS011;60520;49.182;-0.348;2022-08-11T15:28:26;1.17;;;1.00;;
72493;SDS011;60520;49.182;-0.348;2022-08-11T15:31:13;1.58;;;1.10;;
72493;SDS011;60520;49.182;-0.348;2022-08-11T15:34:02;1.67;;;1.00;;
72493;SDS011;60520;49.182;-0.348;2022-08-11T15:36:47;1.13;;;0.88;;
72493;SDS011;60520;49.182;-0.348;2022-08-11T15:39:33;1.08;;;0.90;;
72493;SDS011;60520;49.182;-0.348;2022-08-11T15:42:03;1.08;;;0.98;;
72493;SDS011;60520;49.182;-0.348;2022-08-11T15:44:52;0.95;;;0.90;;
72493;SDS011;60520;49.182;-0.348;2022-08-11T15:47:49;1.63;;;1.25;;
72493;SDS011;60520;49.182;-0.348;2022-08-11T15:50:22;1.80;;;0.98;;
72493;SDS011;60520;49.182;-0.348;2022-08-11T15:52:55;0.98;;;0.82;;
72493;SDS011;60520;49.182;-0.348;2022-08-11T15:55:22;1.27;;;1.02;;
72493;SDS011;60520;49.182;-0.348;2022-08-11T15:57:50;1.40;;;1.00;;
72493;SDS011;60520;49.182;-0.348;2022-08-11T16:00:37;1.15;;;0.90;;
72493;SDS011;60520;49.182;-0.348;2022-08-11T16:03:24;2.22;;;1.30;;
72493;SDS011;60520;49.182;-0.348;2022-08-11T16:06:18;1.40;;;0.95;;
72493;SDS011;60520;49.182;-0.348;2022-08-11T16:08:45;1.10;;;1.00;;
72493;SDS011;60520;49.182;-0.348;2022-08-11T16:11:13;1.60;;;1.30;;
72493;SDS011;60520;49.182;-0.348;2022-08-11T16:13:41;1.10;;;1.00;;
72493;SDS011;60520;49.182;-0.348;2022-08-11T16:16:35;1.25;;;1.02;;